Terminal Aerodrome Forecast
Issued by NWS

Home | Current Version | Previous Version | Text Only | Print | Product List | Glossary On
Versions: 1 2 3 4 5 6 7 8 9 10 11 12 13 14 15
000
FTUS44 KLZK 020300 AAA
TAFLIT
TAF AMD
KLIT 020301Z 0203/0224 06004KT 6SM BR OVC008
     FM021400 08008KT P6SM OVC007
     FM022100 11007KT P6SM OVC010=

USA.gov is the U.S. government's official web portal to all federal, state and local government web resources and services.